sensor_id;sensor_type;location;lat;lon;timestamp;P1;durP1;ratioP1;P2;durP2;ratioP2
58137;SDS011;43955;47.362;18.930;2023-04-25T00:00:23;1.75;;;0.80;;
58137;SDS011;43955;47.362;18.930;2023-04-25T00:02:52;1.52;;;0.80;;
58137;SDS011;43955;47.362;18.930;2023-04-25T00:05:19;1.30;;;0.70;;
58137;SDS011;43955;47.362;18.930;2023-04-25T00:07:47;2.15;;;0.90;;
58137;SDS011;43955;47.362;18.930;2023-04-25T00:10:14;1.95;;;1.10;;
58137;SDS011;43955;47.362;18.930;2023-04-25T00:12:42;1.83;;;0.88;;
58137;SDS011;43955;47.362;18.930;2023-04-25T00:15:09;1.20;;;0.80;;
58137;SDS011;43955;47.362;18.930;2023-04-25T00:17:37;2.67;;;0.93;;
58137;SDS011;43955;47.362;18.930;2023-04-25T00:20:05;2.85;;;0.80;;
58137;SDS011;43955;47.362;18.930;2023-04-25T00:22:35;1.80;;;1.00;;
58137;SDS011;43955;47.362;18.930;2023-04-25T00:25:05;2.10;;;1.10;;
58137;SDS011;43955;47.362;18.930;2023-04-25T00:27:32;2.08;;;1.00;;
58137;SDS011;43955;47.362;18.930;2023-04-25T00:30:00;1.98;;;1.02;;
58137;SDS011;43955;47.362;18.930;2023-04-25T00:32:27;1.87;;;1.10;;
58137;SDS011;43955;47.362;18.930;2023-04-25T00:34:56;2.25;;;1.02;;
58137;SDS011;43955;47.362;18.930;2023-04-25T00:37:24;2.67;;;1.33;;
58137;SDS011;43955;47.362;18.930;2023-04-25T00:39:52;2.95;;;1.17;;
58137;SDS011;43955;47.362;18.930;2023-04-25T00:42:21;2.60;;;1.62;;
58137;SDS011;43955;47.362;18.930;2023-04-25T00:44:49;3.08;;;1.62;;
58137;SDS011;43955;47.362;18.930;2023-04-25T00:47:17;2.62;;;1.35;;
58137;SDS011;43955;47.362;18.930;2023-04-25T00:49:44;4.18;;;1.83;;
58137;SDS011;43955;47.362;18.930;2023-04-25T00:52:11;3.25;;;2.00;;
58137;SDS011;43955;47.362;18.930;2023-04-25T00:54:39;2.90;;;1.75;;
58137;SDS011;43955;47.362;18.930;2023-04-25T00:57:06;4.28;;;1.80;;
58137;SDS011;43955;47.362;18.930;2023-04-25T00:59:33;4.95;;;2.12;;
58137;SDS011;43955;47.362;18.930;2023-04-25T01:02:01;4.00;;;2.35;;
58137;SDS011;43955;47.362;18.930;2023-04-25T01:04:28;4.72;;;1.87;;
58137;SDS011;43955;47.362;18.930;2023-04-25T01:06:56;3.83;;;2.00;;
58137;SDS011;43955;47.362;18.930;2023-04-25T01:09:24;3.85;;;1.95;;
58137;SDS011;43955;47.362;18.930;2023-04-25T01:11:51;4.00;;;1.85;;
58137;SDS011;43955;47.362;18.930;2023-04-25T01:14:18;3.45;;;1.90;;
58137;SDS011;43955;47.362;18.930;2023-04-25T01:16:46;2.72;;;1.60;;
58137;SDS011;43955;47.362;18.930;2023-04-25T01:19:13;6.03;;;2.00;;
58137;SDS011;43955;47.362;18.930;2023-04-25T01:21:45;3.50;;;1.92;;
58137;SDS011;43955;47.362;18.930;2023-04-25T01:24:13;3.22;;;2.20;;
58137;SDS011;43955;47.362;18.930;2023-04-25T01:26:41;6.32;;;1.70;;
58137;SDS011;43955;47.362;18.930;2023-04-25T01:29:11;3.15;;;1.70;;
58137;SDS011;43955;47.362;18.930;2023-04-25T01:31:39;3.58;;;1.73;;
58137;SDS011;43955;47.362;18.930;2023-04-25T01:34:07;3.17;;;1.87;;
58137;SDS011;43955;47.362;18.930;2023-04-25T01:36:34;2.58;;;1.60;;
58137;SDS011;43955;47.362;18.930;2023-04-25T01:39:02;2.72;;;1.73;;
58137;SDS011;43955;47.362;18.930;2023-04-25T01:41:29;4.20;;;1.92;;
58137;SDS011;43955;47.362;18.930;2023-04-25T01:43:56;5.22;;;1.98;;
58137;SDS011;43955;47.362;18.930;2023-04-25T01:46:24;12.18;;;1.98;;
58137;SDS011;43955;47.362;18.930;2023-04-25T01:48:52;3.37;;;1.75;;
58137;SDS011;43955;47.362;18.930;2023-04-25T01:51:19;4.40;;;1.80;;
58137;SDS011;43955;47.362;18.930;2023-04-25T01:53:46;3.10;;;1.70;;
58137;SDS011;43955;47.362;18.930;2023-04-25T01:56:14;3.37;;;2.28;;
58137;SDS011;43955;47.362;18.930;2023-04-25T01:58:41;7.32;;;2.55;;
58137;SDS011;43955;47.362;18.930;2023-04-25T02:01:09;3.50;;;1.90;;
58137;SDS011;43955;47.362;18.930;2023-04-25T02:03:38;3.33;;;1.90;;
58137;SDS011;43955;47.362;18.930;2023-04-25T02:06:06;4.25;;;2.00;;
58137;SDS011;43955;47.362;18.930;2023-04-25T02:08:35;6.45;;;2.00;;
58137;SDS011;43955;47.362;18.930;2023-04-25T02:11:04;2.75;;;1.45;;
58137;SDS011;43955;47.362;18.930;2023-04-25T02:13:31;2.87;;;1.80;;
58137;SDS011;43955;47.362;18.930;2023-04-25T02:15:59;2.50;;;1.55;;
58137;SDS011;43955;47.362;18.930;2023-04-25T02:18:26;4.95;;;2.03;;
58137;SDS011;43955;47.362;18.930;2023-04-25T02:20:54;2.58;;;1.48;;
58137;SDS011;43955;47.362;18.930;2023-04-25T02:23:21;3.53;;;1.80;;
58137;SDS011;43955;47.362;18.930;2023-04-25T02:25:49;3.45;;;1.90;;
58137;SDS011;43955;47.362;18.930;2023-04-25T02:28:16;3.47;;;1.83;;
58137;SDS011;43955;47.362;18.930;2023-04-25T02:30:43;3.08;;;1.67;;
58137;SDS011;43955;47.362;18.930;2023-04-25T02:33:11;4.12;;;1.62;;
58137;SDS011;43955;47.362;18.930;2023-04-25T02:35:38;3.20;;;1.90;;
58137;SDS011;43955;47.362;18.930;2023-04-25T02:38:05;3.55;;;1.98;;
58137;SDS011;43955;47.362;18.930;2023-04-25T02:40:33;3.87;;;1.83;;
58137;SDS011;43955;47.362;18.930;2023-04-25T02:43:00;5.43;;;2.05;;
58137;SDS011;43955;47.362;18.930;2023-04-25T02:45:27;2.60;;;1.98;;
58137;SDS011;43955;47.362;18.930;2023-04-25T02:47:55;3.78;;;2.17;;
58137;SDS011;43955;47.362;18.930;2023-04-25T02:50:22;2.42;;;1.75;;
58137;SDS011;43955;47.362;18.930;2023-04-25T02:52:50;2.97;;;1.67;;
58137;SDS011;43955;47.362;18.930;2023-04-25T02:55:17;2.83;;;1.77;;
58137;SDS011;43955;47.362;18.930;2023-04-25T02:57:45;4.18;;;2.08;;
58137;SDS011;43955;47.362;18.930;2023-04-25T03:00:13;3.55;;;2.00;;
58137;SDS011;43955;47.362;18.930;2023-04-25T03:02:41;4.43;;;1.90;;
58137;SDS011;43955;47.362;18.930;2023-04-25T03:05:08;3.37;;;2.22;;
58137;SDS011;43955;47.362;18.930;2023-04-25T03:07:36;3.47;;;1.85;;
58137;SDS011;43955;47.362;18.930;2023-04-25T03:10:03;5.03;;;2.25;;
58137;SDS011;43955;47.362;18.930;2023-04-25T03:12:32;3.72;;;1.92;;
58137;SDS011;43955;47.362;18.930;2023-04-25T03:15:00;4.45;;;2.10;;
58137;SDS011;43955;47.362;18.930;2023-04-25T03:17:27;4.95;;;2.35;;
58137;SDS011;43955;47.362;18.930;2023-04-25T03:19:55;3.05;;;1.65;;
58137;SDS011;43955;47.362;18.930;2023-04-25T03:22:23;5.07;;;2.25;;
58137;SDS011;43955;47.362;18.930;2023-04-25T03:24:50;2.95;;;1.62;;
58137;SDS011;43955;47.362;18.930;2023-04-25T03:27:19;4.55;;;2.70;;
58137;SDS011;43955;47.362;18.930;2023-04-25T03:29:47;2.95;;;2.03;;
58137;SDS011;43955;47.362;18.930;2023-04-25T03:32:14;5.00;;;2.35;;
58137;SDS011;43955;47.362;18.930;2023-04-25T03:34:41;3.35;;;2.45;;
58137;SDS011;43955;47.362;18.930;2023-04-25T03:37:09;3.25;;;2.03;;
58137;SDS011;43955;47.362;18.930;2023-04-25T03:39:36;3.80;;;1.95;;
58137;SDS011;43955;47.362;18.930;2023-04-25T03:42:05;15.75;;;2.60;;
58137;SDS011;43955;47.362;18.930;2023-04-25T03:44:33;3.35;;;1.90;;
58137;SDS011;43955;47.362;18.930;2023-04-25T03:47:01;3.33;;;1.95;;
58137;SDS011;43955;47.362;18.930;2023-04-25T03:49:28;3.60;;;2.10;;
58137;SDS011;43955;47.362;18.930;2023-04-25T03:51:57;3.83;;;1.90;;
58137;SDS011;43955;47.362;18.930;2023-04-25T03:54:24;3.85;;;2.17;;
58137;SDS011;43955;47.362;18.930;2023-04-25T03:56:52;3.95;;;2.17;;
58137;SDS011;43955;47.362;18.930;2023-04-25T03:59:20;4.30;;;2.00;;
58137;SDS011;43955;47.362;18.930;2023-04-25T04:01:48;4.37;;;2.15;;
58137;SDS011;43955;47.362;18.930;2023-04-25T04:04:15;3.72;;;1.58;;
58137;SDS011;43955;47.362;18.930;2023-04-25T04:06:43;5.50;;;2.30;;
58137;SDS011;43955;47.362;18.930;2023-04-25T04:09:11;4.05;;;2.20;;
58137;SDS011;43955;47.362;18.930;2023-04-25T04:11:40;7.22;;;1.90;;
58137;SDS011;43955;47.362;18.930;2023-04-25T04:14:08;4.37;;;2.50;;
58137;SDS011;43955;47.362;18.930;2023-04-25T04:16:37;4.90;;;1.70;;
58137;SDS011;43955;47.362;18.930;2023-04-25T04:19:05;4.10;;;2.15;;
58137;SDS011;43955;47.362;18.930;2023-04-25T04:21:32;3.58;;;1.92;;
58137;SDS011;43955;47.362;18.930;2023-04-25T04:24:00;4.22;;;2.03;;
58137;SDS011;43955;47.362;18.930;2023-04-25T04:26:28;4.15;;;2.17;;
58137;SDS011;43955;47.362;18.930;2023-04-25T04:28:55;4.30;;;2.40;;
58137;SDS011;43955;47.362;18.930;2023-04-25T04:31:24;3.05;;;1.90;;
58137;SDS011;43955;47.362;18.930;2023-04-25T04:33:51;4.93;;;2.40;;
58137;SDS011;43955;47.362;18.930;2023-04-25T04:36:19;5.10;;;2.47;;
58137;SDS011;43955;47.362;18.930;2023-04-25T04:38:49;4.43;;;2.28;;
58137;SDS011;43955;47.362;18.930;2023-04-25T04:41:18;4.72;;;2.50;;
58137;SDS011;43955;47.362;18.930;2023-04-25T04:43:46;4.28;;;2.45;;
58137;SDS011;43955;47.362;18.930;2023-04-25T04:46:14;4.78;;;2.40;;
58137;SDS011;43955;47.362;18.930;2023-04-25T04:48:43;4.50;;;2.40;;
58137;SDS011;43955;47.362;18.930;2023-04-25T04:51:12;3.97;;;2.35;;
58137;SDS011;43955;47.362;18.930;2023-04-25T04:53:41;3.65;;;2.25;;
58137;SDS011;43955;47.362;18.930;2023-04-25T04:56:09;7.05;;;2.95;;
58137;SDS011;43955;47.362;18.930;2023-04-25T04:58:36;5.40;;;2.92;;
58137;SDS011;43955;47.362;18.930;2023-04-25T05:01:04;4.28;;;2.33;;
58137;SDS011;43955;47.362;18.930;2023-04-25T05:03:31;6.28;;;2.85;;
58137;SDS011;43955;47.362;18.930;2023-04-25T05:06:00;4.78;;;2.87;;
58137;SDS011;43955;47.362;18.930;2023-04-25T05:08:28;7.37;;;3.20;;
58137;SDS011;43955;47.362;18.930;2023-04-25T05:10:56;3.85;;;2.42;;
58137;SDS011;43955;47.362;18.930;2023-04-25T05:13:23;7.10;;;2.87;;
58137;SDS011;43955;47.362;18.930;2023-04-25T05:15:51;5.82;;;2.75;;
58137;SDS011;43955;47.362;18.930;2023-04-25T05:18:18;4.40;;;2.92;;
58137;SDS011;43955;47.362;18.930;2023-04-25T05:20:51;5.15;;;2.83;;
58137;SDS011;43955;47.362;18.930;2023-04-25T05:23:18;6.85;;;2.97;;
58137;SDS011;43955;47.362;18.930;2023-04-25T05:25:46;6.55;;;3.75;;
58137;SDS011;43955;47.362;18.930;2023-04-25T05:28:14;7.37;;;3.40;;
58137;SDS011;43955;47.362;18.930;2023-04-25T05:30:42;5.10;;;3.03;;
58137;SDS011;43955;47.362;18.930;2023-04-25T05:33:09;6.87;;;3.30;;
58137;SDS011;43955;47.362;18.930;2023-04-25T05:35:37;6.12;;;2.90;;
58137;SDS011;43955;47.362;18.930;2023-04-25T05:38:05;4.45;;;2.37;;
58137;SDS011;43955;47.362;18.930;2023-04-25T05:40:35;4.72;;;3.05;;
58137;SDS011;43955;47.362;18.930;2023-04-25T05:43:03;8.07;;;4.15;;
58137;SDS011;43955;47.362;18.930;2023-04-25T05:45:31;6.87;;;3.70;;
58137;SDS011;43955;47.362;18.930;2023-04-25T05:47:58;7.25;;;3.50;;
58137;SDS011;43955;47.362;18.930;2023-04-25T05:50:26;8.45;;;4.47;;
58137;SDS011;43955;47.362;18.930;2023-04-25T05:52:54;8.25;;;4.10;;
58137;SDS011;43955;47.362;18.930;2023-04-25T05:55:22;6.72;;;3.95;;
58137;SDS011;43955;47.362;18.930;2023-04-25T05:57:50;6.20;;;3.53;;
58137;SDS011;43955;47.362;18.930;2023-04-25T06:00:18;7.18;;;3.47;;
58137;SDS011;43955;47.362;18.930;2023-04-25T06:02:47;7.15;;;3.58;;
58137;SDS011;43955;47.362;18.930;2023-04-25T06:05:15;6.78;;;3.20;;
58137;SDS011;43955;47.362;18.930;2023-04-25T06:07:44;8.45;;;4.40;;
58137;SDS011;43955;47.362;18.930;2023-04-25T06:10:11;5.57;;;3.30;;
58137;SDS011;43955;47.362;18.930;2023-04-25T06:12:39;6.20;;;3.53;;
58137;SDS011;43955;47.362;18.930;2023-04-25T06:15:07;6.60;;;3.33;;
58137;SDS011;43955;47.362;18.930;2023-04-25T06:17:54;7.72;;;3.20;;
58137;SDS011;43955;47.362;18.930;2023-04-25T06:20:22;5.25;;;2.62;;
58137;SDS011;43955;47.362;18.930;2023-04-25T06:22:51;5.35;;;2.65;;
58137;SDS011;43955;47.362;18.930;2023-04-25T06:25:20;9.52;;;3.30;;
58137;SDS011;43955;47.362;18.930;2023-04-25T06:27:48;4.20;;;3.05;;
58137;SDS011;43955;47.362;18.930;2023-04-25T06:30:15;6.22;;;3.62;;
58137;SDS011;43955;47.362;18.930;2023-04-25T06:32:45;4.93;;;3.42;;
58137;SDS011;43955;47.362;18.930;2023-04-25T06:35:13;4.85;;;3.25;;
58137;SDS011;43955;47.362;18.930;2023-04-25T06:37:40;5.47;;;3.00;;
58137;SDS011;43955;47.362;18.930;2023-04-25T06:40:08;6.53;;;3.45;;
58137;SDS011;43955;47.362;18.930;2023-04-25T06:42:36;4.22;;;2.50;;
58137;SDS011;43955;47.362;18.930;2023-04-25T06:45:04;5.03;;;3.10;;
58137;SDS011;43955;47.362;18.930;2023-04-25T06:47:32;4.62;;;2.80;;
58137;SDS011;43955;47.362;18.930;2023-04-25T06:50:00;4.07;;;2.33;;
58137;SDS011;43955;47.362;18.930;2023-04-25T06:52:29;4.62;;;2.90;;
58137;SDS011;43955;47.362;18.930;2023-04-25T06:54:57;5.45;;;3.17;;
58137;SDS011;43955;47.362;18.930;2023-04-25T06:57:26;4.53;;;3.00;;
58137;SDS011;43955;47.362;18.930;2023-04-25T06:59:54;5.57;;;2.97;;
58137;SDS011;43955;47.362;18.930;2023-04-25T07:02:22;5.65;;;3.00;;
58137;SDS011;43955;47.362;18.930;2023-04-25T07:04:50;5.50;;;3.25;;
58137;SDS011;43955;47.362;18.930;2023-04-25T07:07:17;5.18;;;3.08;;
58137;SDS011;43955;47.362;18.930;2023-04-25T07:09:45;5.18;;;2.85;;
58137;SDS011;43955;47.362;18.930;2023-04-25T07:12:12;4.85;;;3.03;;
58137;SDS011;43955;47.362;18.930;2023-04-25T07:14:40;4.95;;;2.75;;
58137;SDS011;43955;47.362;18.930;2023-04-25T07:17:08;5.87;;;2.95;;
58137;SDS011;43955;47.362;18.930;2023-04-25T07:19:35;6.00;;;2.83;;
58137;SDS011;43955;47.362;18.930;2023-04-25T07:22:05;5.00;;;3.15;;
58137;SDS011;43955;47.362;18.930;2023-04-25T07:24:34;4.55;;;2.55;;
58137;SDS011;43955;47.362;18.930;2023-04-25T07:27:02;5.53;;;2.65;;
58137;SDS011;43955;47.362;18.930;2023-04-25T07:29:29;4.68;;;2.30;;
58137;SDS011;43955;47.362;18.930;2023-04-25T07:31:58;4.70;;;2.58;;
58137;SDS011;43955;47.362;18.930;2023-04-25T07:34:25;4.20;;;2.72;;
58137;SDS011;43955;47.362;18.930;2023-04-25T07:36:53;4.78;;;2.70;;
58137;SDS011;43955;47.362;18.930;2023-04-25T07:39:21;5.00;;;2.70;;
58137;SDS011;43955;47.362;18.930;2023-04-25T07:41:50;5.25;;;2.92;;
58137;SDS011;43955;47.362;18.930;2023-04-25T07:44:21;6.15;;;2.83;;
58137;SDS011;43955;47.362;18.930;2023-04-25T07:46:48;3.53;;;2.28;;
58137;SDS011;43955;47.362;18.930;2023-04-25T07:49:16;7.65;;;3.20;;
58137;SDS011;43955;47.362;18.930;2023-04-25T07:51:44;6.35;;;3.20;;
58137;SDS011;43955;47.362;18.930;2023-04-25T07:54:13;3.62;;;2.47;;
58137;SDS011;43955;47.362;18.930;2023-04-25T07:56:42;5.93;;;2.60;;
58137;SDS011;43955;47.362;18.930;2023-04-25T07:59:20;4.28;;;2.50;;
58137;SDS011;43955;47.362;18.930;2023-04-25T08:01:47;4.93;;;2.83;;
58137;SDS011;43955;47.362;18.930;2023-04-25T08:04:15;5.07;;;2.28;;
58137;SDS011;43955;47.362;18.930;2023-04-25T08:06:44;6.25;;;2.95;;
58137;SDS011;43955;47.362;18.930;2023-04-25T08:09:12;4.53;;;2.10;;
58137;SDS011;43955;47.362;18.930;2023-04-25T08:11:41;4.53;;;2.83;;
58137;SDS011;43955;47.362;18.930;2023-04-25T08:14:09;4.43;;;2.35;;
58137;SDS011;43955;47.362;18.930;2023-04-25T08:16:36;3.90;;;2.30;;
58137;SDS011;43955;47.362;18.930;2023-04-25T08:19:04;3.83;;;2.47;;
58137;SDS011;43955;47.362;18.930;2023-04-25T08:21:32;6.35;;;3.10;;
58137;SDS011;43955;47.362;18.930;2023-04-25T08:24:00;6.00;;;2.50;;
58137;SDS011;43955;47.362;18.930;2023-04-25T08:26:31;4.47;;;2.85;;
58137;SDS011;43955;47.362;18.930;2023-04-25T08:28:58;3.87;;;2.37;;
58137;SDS011;43955;47.362;18.930;2023-04-25T08:31:27;3.70;;;2.30;;
58137;SDS011;43955;47.362;18.930;2023-04-25T08:33:54;3.67;;;2.70;;
58137;SDS011;43955;47.362;18.930;2023-04-25T08:36:22;4.35;;;2.47;;
58137;SDS011;43955;47.362;18.930;2023-04-25T08:38:57;4.78;;;2.85;;
58137;SDS011;43955;47.362;18.930;2023-04-25T08:41:25;11.38;;;3.33;;
58137;SDS011;43955;47.362;18.930;2023-04-25T08:43:53;4.35;;;2.90;;
58137;SDS011;43955;47.362;18.930;2023-04-25T08:46:23;4.25;;;2.62;;
58137;SDS011;43955;47.362;18.930;2023-04-25T08:48:52;5.30;;;2.15;;
58137;SDS011;43955;47.362;18.930;2023-04-25T08:51:24;9.20;;;2.67;;
58137;SDS011;43955;47.362;18.930;2023-04-25T08:53:52;7.85;;;3.17;;
58137;SDS011;43955;47.362;18.930;2023-04-25T08:56:26;4.37;;;2.75;;
58137;SDS011;43955;47.362;18.930;2023-04-25T08:58:56;4.72;;;3.00;;
58137;SDS011;43955;47.362;18.930;2023-04-25T09:01:23;4.15;;;2.50;;
58137;SDS011;43955;47.362;18.930;2023-04-25T09:03:52;6.05;;;2.92;;
58137;SDS011;43955;47.362;18.930;2023-04-25T09:06:20;4.82;;;3.00;;
58137;SDS011;43955;47.362;18.930;2023-04-25T09:08:50;4.82;;;2.90;;
58137;SDS011;43955;47.362;18.930;2023-04-25T09:11:18;4.82;;;3.40;;
58137;SDS011;43955;47.362;18.930;2023-04-25T09:13:50;4.55;;;2.85;;
58137;SDS011;43955;47.362;18.930;2023-04-25T09:19:31;4.12;;;3.05;;
58137;SDS011;43955;47.362;18.930;2023-04-25T09:22:09;4.37;;;2.75;;
58137;SDS011;43955;47.362;18.930;2023-04-25T09:24:37;4.87;;;2.87;;
58137;SDS011;43955;47.362;18.930;2023-04-25T09:27:05;3.85;;;2.62;;
58137;SDS011;43955;47.362;18.930;2023-04-25T09:29:38;6.32;;;2.62;;
58137;SDS011;43955;47.362;18.930;2023-04-25T09:32:21;4.60;;;3.00;;
58137;SDS011;43955;47.362;18.930;2023-04-25T09:34:51;7.60;;;3.58;;
58137;SDS011;43955;47.362;18.930;2023-04-25T09:37:20;7.57;;;2.87;;
58137;SDS011;43955;47.362;18.930;2023-04-25T09:39:52;5.47;;;2.90;;
58137;SDS011;43955;47.362;18.930;2023-04-25T09:42:29;3.80;;;2.40;;
58137;SDS011;43955;47.362;18.930;2023-04-25T09:44:59;3.53;;;2.42;;
58137;SDS011;43955;47.362;18.930;2023-04-25T09:47:31;3.87;;;2.80;;
58137;SDS011;43955;47.362;18.930;2023-04-25T09:49:59;3.42;;;2.40;;
58137;SDS011;43955;47.362;18.930;2023-04-25T09:52:28;3.95;;;2.15;;
58137;SDS011;43955;47.362;18.930;2023-04-25T09:54:55;4.35;;;2.37;;
58137;SDS011;43955;47.362;18.930;2023-04-25T09:57:24;6.45;;;3.15;;
58137;SDS011;43955;47.362;18.930;2023-04-25T09:59:52;6.93;;;2.60;;
58137;SDS011;43955;47.362;18.930;2023-04-25T10:02:21;6.05;;;2.65;;
58137;SDS011;43955;47.362;18.930;2023-04-25T10:04:52;7.20;;;2.50;;
58137;SDS011;43955;47.362;18.930;2023-04-25T10:07:22;3.40;;;2.20;;
58137;SDS011;43955;47.362;18.930;2023-04-25T10:09:59;4.05;;;2.30;;
58137;SDS011;43955;47.362;18.930;2023-04-25T10:12:29;6.43;;;2.37;;
58137;SDS011;43955;47.362;18.930;2023-04-25T10:15:01;3.83;;;2.10;;
58137;SDS011;43955;47.362;18.930;2023-04-25T10:17:30;4.32;;;2.47;;
58137;SDS011;43955;47.362;18.930;2023-04-25T10:19:58;2.30;;;1.60;;
58137;SDS011;43955;47.362;18.930;2023-04-25T10:22:41;3.05;;;1.75;;
58137;SDS011;43955;47.362;18.930;2023-04-25T10:25:09;2.22;;;1.40;;
58137;SDS011;43955;47.362;18.930;2023-04-25T10:27:38;2.58;;;1.60;;
58137;SDS011;43955;47.362;18.930;2023-04-25T10:30:10;3.90;;;1.65;;
58137;SDS011;43955;47.362;18.930;2023-04-25T10:32:43;2.92;;;1.50;;
58137;SDS011;43955;47.362;18.930;2023-04-25T10:35:11;4.70;;;1.48;;
58137;SDS011;43955;47.362;18.930;2023-04-25T10:40:42;4.60;;;2.17;;
58137;SDS011;43955;47.362;18.930;2023-04-25T10:43:36;2.72;;;1.70;;
58137;SDS011;43955;47.362;18.930;2023-04-25T10:48:59;2.72;;;1.40;;
58137;SDS011;43955;47.362;18.930;2023-04-25T10:51:28;2.05;;;1.45;;
58137;SDS011;43955;47.362;18.930;2023-04-25T10:54:17;2.40;;;1.60;;
58137;SDS011;43955;47.362;18.930;2023-04-25T10:56:44;1.92;;;1.08;;
58137;SDS011;43955;47.362;18.930;2023-04-25T10:59:12;3.72;;;0.90;;
58137;SDS011;43955;47.362;18.930;2023-04-25T11:01:46;1.12;;;0.65;;
58137;SDS011;43955;47.362;18.930;2023-04-25T11:04:19;5.30;;;0.75;;
58137;SDS011;43955;47.362;18.930;2023-04-25T11:07:34;1.27;;;0.85;;
58137;SDS011;43955;47.362;18.930;2023-04-25T11:09:47;1.95;;;0.80;;
58137;SDS011;43955;47.362;18.930;2023-04-25T11:12:15;1.10;;;0.60;;
58137;SDS011;43955;47.362;18.930;2023-04-25T11:14:43;2.08;;;0.68;;
58137;SDS011;43955;47.362;18.930;2023-04-25T11:17:11;2.05;;;1.10;;
58137;SDS011;43955;47.362;18.930;2023-04-25T11:19:39;1.58;;;0.90;;
58137;SDS011;43955;47.362;18.930;2023-04-25T11:22:06;2.53;;;0.90;;
58137;SDS011;43955;47.362;18.930;2023-04-25T11:24:35;1.12;;;0.68;;
58137;SDS011;43955;47.362;18.930;2023-04-25T11:27:03;1.45;;;0.85;;
58137;SDS011;43955;47.362;18.930;2023-04-25T11:29:31;2.25;;;0.98;;
58137;SDS011;43955;47.362;18.930;2023-04-25T11:31:59;1.08;;;0.60;;
58137;SDS011;43955;47.362;18.930;2023-04-25T11:34:28;2.65;;;0.98;;
58137;SDS011;43955;47.362;18.930;2023-04-25T11:37:00;2.47;;;0.80;;
58137;SDS011;43955;47.362;18.930;2023-04-25T11:39:29;3.80;;;1.30;;
58137;SDS011;43955;47.362;18.930;2023-04-25T11:41:57;1.33;;;0.80;;
58137;SDS011;43955;47.362;18.930;2023-04-25T11:44:27;1.17;;;0.80;;
58137;SDS011;43955;47.362;18.930;2023-04-25T11:46:55;1.85;;;1.00;;
58137;SDS011;43955;47.362;18.930;2023-04-25T11:49:22;1.67;;;0.98;;
58137;SDS011;43955;47.362;18.930;2023-04-25T11:51:51;1.48;;;1.10;;
58137;SDS011;43955;47.362;18.930;2023-04-25T11:54:18;2.12;;;1.40;;
58137;SDS011;43955;47.362;18.930;2023-04-25T11:56:46;1.67;;;1.08;;
58137;SDS011;43955;47.362;18.930;2023-04-25T11:59:13;1.83;;;1.00;;
58137;SDS011;43955;47.362;18.930;2023-04-25T12:01:41;2.12;;;1.25;;
58137;SDS011;43955;47.362;18.930;2023-04-25T12:06:44;2.35;;;1.37;;
58137;SDS011;43955;47.362;18.930;2023-04-25T12:09:17;3.37;;;1.08;;
58137;SDS011;43955;47.362;18.930;2023-04-25T12:11:46;2.33;;;1.00;;
58137;SDS011;43955;47.362;18.930;2023-04-25T12:14:22;5.97;;;1.10;;
58137;SDS011;43955;47.362;18.930;2023-04-25T12:16:55;3.70;;;1.15;;
58137;SDS011;43955;47.362;18.930;2023-04-25T12:19:25;2.10;;;1.15;;
58137;SDS011;43955;47.362;18.930;2023-04-25T12:21:52;2.28;;;1.10;;
58137;SDS011;43955;47.362;18.930;2023-04-25T12:24:25;7.00;;;1.27;;
58137;SDS011;43955;47.362;18.930;2023-04-25T12:27:04;2.05;;;1.10;;
58137;SDS011;43955;47.362;18.930;2023-04-25T12:29:33;2.95;;;1.08;;
58137;SDS011;43955;47.362;18.930;2023-04-25T12:32:15;1.98;;;0.90;;
58137;SDS011;43955;47.362;18.930;2023-04-25T12:34:43;1.60;;;1.00;;
58137;SDS011;43955;47.362;18.930;2023-04-25T12:37:11;1.67;;;0.90;;
58137;SDS011;43955;47.362;18.930;2023-04-25T12:39:39;2.15;;;0.90;;
58137;SDS011;43955;47.362;18.930;2023-04-25T12:42:06;2.58;;;1.00;;
58137;SDS011;43955;47.362;18.930;2023-04-25T12:44:39;1.85;;;1.10;;
58137;SDS011;43955;47.362;18.930;2023-04-25T12:47:07;3.15;;;1.67;;
58137;SDS011;43955;47.362;18.930;2023-04-25T12:49:34;3.12;;;1.25;;
58137;SDS011;43955;47.362;18.930;2023-04-25T12:52:01;2.45;;;1.17;;
58137;SDS011;43955;47.362;18.930;2023-04-25T12:54:29;2.33;;;1.05;;
58137;SDS011;43955;47.362;18.930;2023-04-25T12:56:57;2.47;;;1.17;;
58137;SDS011;43955;47.362;18.930;2023-04-25T12:59:24;4.97;;;1.12;;
58137;SDS011;43955;47.362;18.930;2023-04-25T13:01:52;2.40;;;1.30;;
58137;SDS011;43955;47.362;18.930;2023-04-25T13:04:19;2.60;;;1.45;;
58137;SDS011;43955;47.362;18.930;2023-04-25T13:06:48;2.67;;;1.08;;
58137;SDS011;43955;47.362;18.930;2023-04-25T13:09:15;4.62;;;1.08;;
58137;SDS011;43955;47.362;18.930;2023-04-25T13:11:42;2.65;;;1.00;;
58137;SDS011;43955;47.362;18.930;2023-04-25T13:14:10;1.90;;;1.10;;
58137;SDS011;43955;47.362;18.930;2023-04-25T13:16:38;2.00;;;1.12;;
58137;SDS011;43955;47.362;18.930;2023-04-25T13:19:05;2.10;;;1.20;;
58137;SDS011;43955;47.362;18.930;2023-04-25T13:21:34;2.33;;;1.27;;
58137;SDS011;43955;47.362;18.930;2023-04-25T13:24:02;3.25;;;1.48;;
58137;SDS011;43955;47.362;18.930;2023-04-25T13:26:29;1.80;;;1.00;;
58137;SDS011;43955;47.362;18.930;2023-04-25T13:28:56;1.77;;;1.08;;
58137;SDS011;43955;47.362;18.930;2023-04-25T13:31:24;3.75;;;0.93;;
58137;SDS011;43955;47.362;18.930;2023-04-25T13:33:51;3.30;;;1.25;;
58137;SDS011;43955;47.362;18.930;2023-04-25T13:36:19;3.08;;;1.77;;
58137;SDS011;43955;47.362;18.930;2023-04-25T13:38:47;5.72;;;1.37;;
58137;SDS011;43955;47.362;18.930;2023-04-25T13:41:16;2.62;;;1.42;;
58137;SDS011;43955;47.362;18.930;2023-04-25T13:43:46;2.65;;;1.42;;
58137;SDS011;43955;47.362;18.930;2023-04-25T13:46:15;4.22;;;1.48;;
58137;SDS011;43955;47.362;18.930;2023-04-25T13:49:06;3.33;;;1.48;;
58137;SDS011;43955;47.362;18.930;2023-04-25T13:51:39;2.67;;;1.55;;
58137;SDS011;43955;47.362;18.930;2023-04-25T13:54:07;2.83;;;0.98;;
58137;SDS011;43955;47.362;18.930;2023-04-25T13:56:34;3.12;;;1.52;;
58137;SDS011;43955;47.362;18.930;2023-04-25T13:59:02;3.45;;;1.10;;
58137;SDS011;43955;47.362;18.930;2023-04-25T14:01:29;2.70;;;1.35;;
58137;SDS011;43955;47.362;18.930;2023-04-25T14:03:58;2.55;;;1.27;;
58137;SDS011;43955;47.362;18.930;2023-04-25T14:06:25;2.10;;;1.20;;
58137;SDS011;43955;47.362;18.930;2023-04-25T14:08:54;5.30;;;1.30;;
58137;SDS011;43955;47.362;18.930;2023-04-25T14:11:21;2.42;;;1.40;;
58137;SDS011;43955;47.362;18.930;2023-04-25T14:13:49;9.35;;;1.58;;
58137;SDS011;43955;47.362;18.930;2023-04-25T14:16:16;2.72;;;1.30;;
58137;SDS011;43955;47.362;18.930;2023-04-25T14:18:44;2.87;;;1.25;;
58137;SDS011;43955;47.362;18.930;2023-04-25T14:21:11;2.65;;;1.30;;
58137;SDS011;43955;47.362;18.930;2023-04-25T14:23:39;3.75;;;1.52;;
58137;SDS011;43955;47.362;18.930;2023-04-25T14:26:07;2.20;;;1.15;;
58137;SDS011;43955;47.362;18.930;2023-04-25T14:28:38;5.70;;;1.50;;
58137;SDS011;43955;47.362;18.930;2023-04-25T14:31:06;2.22;;;1.30;;
58137;SDS011;43955;47.362;18.930;2023-04-25T14:33:33;3.45;;;1.70;;
58137;SDS011;43955;47.362;18.930;2023-04-25T14:36:01;6.68;;;2.42;;
58137;SDS011;43955;47.362;18.930;2023-04-25T14:38:29;2.40;;;1.40;;
58137;SDS011;43955;47.362;18.930;2023-04-25T14:40:56;3.45;;;1.45;;
58137;SDS011;43955;47.362;18.930;2023-04-25T14:43:23;2.37;;;1.62;;
58137;SDS011;43955;47.362;18.930;2023-04-25T14:45:51;3.15;;;1.50;;
58137;SDS011;43955;47.362;18.930;2023-04-25T14:48:18;2.72;;;1.48;;
58137;SDS011;43955;47.362;18.930;2023-04-25T14:50:46;4.57;;;1.55;;
58137;SDS011;43955;47.362;18.930;2023-04-25T14:53:13;1.90;;;1.23;;